Time;durP1;ratioP1;P1;durP2;ratioP2;P2;SDS_P1;SDS_P2;PMS_P1;PMS_P2;Temp;Humidity;BMP_temperature;BMP_pressure;BME280_temperature;BME280_humidity;BME280_pressure;Samples;Min_cycle;Max_cycle;Signal;HPM_P1;HPM_P2
2022/01/10 00:00:28;;;;;;;15.23;7.63;;;;;;;0.50;100.00;95751.56;10536889;28;20681;-79
2022/01/10 00:05:28;;;;;;;15.87;8.17;;;;;;;0.42;100.00;95753.91;10518973;28;20195;-79
2022/01/10 00:10:28;;;;;;;12.90;7.43;;;;;;;0.48;100.00;95761.97;10536874;28;20719;-80
2022/01/10 00:15:29;;;;;;;16.83;7.93;;;;;;;0.48;100.00;95761.97;10536341;28;20699;-80
2022/01/10 00:20:29;;;;;;;16.43;7.57;;;;;;;0.48;100.00;95763.75;10536571;28;20227;-80
2022/01/10 00:25:30;;;;;;;16.57;8.37;;;;;;;0.46;100.00;95781.06;10518226;28;20224;-80
2022/01/10 00:30:30;;;;;;;15.20;8.93;;;;;;;0.43;100.00;95799.31;10517898;28;20190;-80
2022/01/10 00:35:31;;;;;;;18.27;8.67;;;;;;;0.43;100.00;95805.31;10518241;28;20182;-79
2022/01/10 00:40:32;;;;;;;14.00;8.47;;;;;;;0.42;100.00;95811.41;10517370;28;20238;-79
2022/01/10 00:45:32;;;;;;;18.43;9.83;;;;;;;0.40;100.00;95812.44;10501273;28;20205;-79
2022/01/10 00:50:33;;;;;;;19.57;8.53;;;;;;;0.44;100.00;95817.25;10517521;28;20560;-79
2022/01/10 00:55:33;;;;;;;14.93;8.20;;;;;;;0.49;100.00;95829.78;10535620;28;20206;-79
2022/01/10 01:00:34;;;;;;;15.23;8.10;;;;;;;0.49;100.00;95838.34;10535057;28;20229;-79
2022/01/10 01:05:39;;;;;;;21.53;8.93;;;;;;;0.48;100.00;95836.69;10535335;28;20272;-79
2022/01/10 01:26:32;;;;;;;21.10;8.33;;;;;;;0.61;100.00;95879.59;10520081;28;20296;-79
2022/01/10 01:31:33;;;;;;;17.80;8.47;;;;;;;0.52;100.00;95886.25;10525062;28;20189;-79
2022/01/10 01:36:34;;;;;;;13.80;7.87;;;;;;;0.60;100.00;95894.22;10542863;28;20588;-79
2022/01/10 01:41:35;;;;;;;11.67;6.93;;;;;;;0.67;100.00;95900.59;10524248;28;20186;-79
2022/01/10 01:46:37;;;;;;;17.57;8.33;;;;;;;0.58;100.00;95905.59;10524516;28;20182;-79
2022/01/10 01:51:38;;;;;;;16.33;7.60;;;;;;;0.49;100.00;95910.50;10524966;28;20196;-78
2022/01/10 01:56:39;;;;;;;16.83;8.57;;;;;;;0.68;100.00;95912.50;10523774;28;20258;-78
2022/01/10 02:01:40;;;;;;;19.80;8.13;;;;;;;0.53;100.00;95922.19;10522635;28;20221;-79
2022/01/10 02:06:41;;;;;;;14.30;7.03;;;;;;;0.56;100.00;95926.31;10522344;28;20710;-78
2022/01/10 02:11:41;;;;;;;14.50;7.83;;;;;;;0.46;100.00;95941.66;10504819;28;20193;-79
2022/01/10 02:16:44;;;;;;;18.87;8.60;;;;;;;0.42;100.00;95954.88;10521802;28;20186;-79
2022/01/10 02:21:59;;;;;;;17.97;7.97;;;;;;;0.39;100.00;95949.94;10507690;28;20190;-79
2022/01/10 02:27:03;;;;;;;17.27;9.20;;;;;;;0.36;100.00;95961.28;10521011;28;20532;-79
2022/01/10 02:32:04;;;;;;;16.43;8.80;;;;;;;0.37;100.00;95962.09;10523272;28;20222;-79
2022/01/10 02:37:04;;;;;;;18.90;9.17;;;;;;;0.25;100.00;95974.94;10505407;28;20246;-79
2022/01/10 02:42:08;;;;;;;16.80;8.27;;;;;;;0.39;100.00;95980.84;10520570;28;20188;-78
2022/01/10 02:47:08;;;;;;;15.77;8.73;;;;;;;0.23;100.00;95984.56;10522309;28;20244;-79
2022/01/10 02:52:09;;;;;;;20.33;8.43;;;;;;;0.27;100.00;95993.69;10505134;28;20191;-79
2022/01/10 02:57:09;;;;;;;19.03;9.07;;;;;;;0.29;100.00;95986.69;10505129;28;20217;-78
2022/01/10 03:02:10;;;;;;;18.30;8.27;;;;;;;0.33;100.00;95998.38;10504585;28;20622;-79
2022/01/10 03:07:16;;;;;;;16.90;8.73;;;;;;;0.53;100.00;96011.59;10521363;28;20183;-78
2022/01/10 03:12:17;;;;;;;23.13;9.77;;;;;;;0.39;100.00;96017.75;10503768;28;20184;-78
2022/01/10 03:17:17;;;;;;;19.53;9.63;;;;;;;0.47;100.00;96014.59;10521003;28;20681;-78
2022/01/10 03:22:18;;;;;;;17.60;9.70;;;;;;;0.48;100.00;96024.00;10520432;28;20189;-78
2022/01/10 03:27:18;;;;;;;19.53;9.60;;;;;;;0.58;100.00;96037.84;10538578;28;20716;-78
2022/01/10 03:32:19;;;;;;;18.83;9.47;;;;;;;0.43;100.00;96039.78;10537642;28;20186;-78
2022/01/10 03:37:19;;;;;;;16.07;9.30;;;;;;;0.46;100.00;96047.28;10520127;28;20226;-78
2022/01/10 03:42:21;;;;;;;19.47;9.57;;;;;;;0.65;100.00;96045.97;10503705;28;20189;-78
2022/01/10 03:47:22;;;;;;;20.50;9.23;;;;;;;0.49;100.00;96053.97;10520518;28;20194;-78
2022/01/10 03:52:25;;;;;;;18.57;8.73;;;;;;;0.53;100.00;96061.34;10537820;28;20259;-78
2022/01/10 03:57:26;;;;;;;19.67;10.10;;;;;;;0.43;100.00;96072.44;10519246;28;20217;-78
2022/01/10 04:02:29;;;;;;;20.50;10.43;;;;;;;0.41;100.00;96076.88;10535401;28;20747;-78
2022/01/10 04:07:30;;;;;;;22.43;9.43;;;;;;;0.51;100.00;96086.44;10513635;28;20182;-78
2022/01/10 04:12:30;;;;;;;20.23;9.73;;;;;;;0.58;100.00;96091.16;10510782;28;20549;-77
2022/01/10 04:17:31;;;;;;;17.07;9.50;;;;;;;0.61;100.00;96099.47;10512244;28;20576;-77
2022/01/10 04:22:31;;;;;;;27.87;10.27;;;;;;;0.48;100.00;96109.03;10511304;28;20183;-77
2022/01/10 04:27:32;;;;;;;23.97;10.60;;;;;;;0.47;100.00;96122.84;10511166;28;20194;-77
2022/01/10 04:32:33;;;;;;;18.67;9.57;;;;;;;0.53;100.00;96128.38;10511125;28;20268;-77
2022/01/10 04:37:34;;;;;;;19.50;9.67;;;;;;;0.45;100.00;96129.88;10510413;28;20695;-77
2022/01/10 04:42:34;;;;;;;21.67;10.90;;;;;;;0.53;100.00;96143.00;10510719;28;20192;-77
2022/01/10 04:47:35;;;;;;;17.83;9.43;;;;;;;0.58;100.00;96155.56;10493430;28;20195;-77
2022/01/10 04:52:35;;;;;;;23.33;10.00;;;;;;;0.54;100.00;96160.13;10509854;28;20193;-77
2022/01/10 04:57:36;;;;;;;20.37;10.43;;;;;;;0.59;100.00;96168.34;10510216;28;20627;-78
2022/01/10 05:02:37;;;;;;;17.40;9.33;;;;;;;0.62;100.00;96175.88;10533777;28;20637;-77
2022/01/10 05:07:38;;;;;;;18.90;10.10;;;;;;;0.65;100.00;96185.97;10526338;28;20214;-77
2022/01/10 05:12:39;;;;;;;23.17;9.80;;;;;;;0.63;100.00;96187.00;10526200;28;20221;-77
2022/01/10 05:17:40;;;;;;;25.13;9.63;;;;;;;0.60;100.00;96197.50;10525642;28;20304;-78
2022/01/10 05:22:42;;;;;;;21.07;9.67;;;;;;;0.58;100.00;96209.69;10507746;28;20183;-77
2022/01/10 05:27:43;;;;;;;20.50;10.23;;;;;;;0.70;100.00;96217.41;10524781;28;20185;-78
2022/01/10 05:32:44;;;;;;;25.37;10.23;;;;;;;0.56;100.00;96214.97;10525419;28;20186;-78
2022/01/10 05:37:53;;;;;;;26.80;10.67;;;;;;;0.58;100.00;96231.13;10509458;28;20232;-78
2022/01/10 05:42:54;;;;;;;25.40;10.77;;;;;;;0.60;100.00;96243.91;10525369;28;20276;-77
2022/01/10 05:48:06;;;;;;;22.07;11.07;;;;;;;0.53;100.00;96248.69;10508516;28;20179;-76
2022/01/10 05:53:09;;;;;;;29.07;10.87;;;;;;;0.53;100.00;96262.38;10524973;28;20298;-77
2022/01/10 05:58:10;;;;;;;18.93;11.17;;;;;;;0.35;100.00;96276.53;10523344;28;20210;-77
2022/01/10 06:03:12;;;;;;;20.90;9.83;;;;;;;0.25;100.00;96285.81;10524093;28;20201;-77
2022/01/10 06:08:17;;;;;;;22.00;10.60;;;;;;;0.23;100.00;96290.22;10524324;28;20183;-77
2022/01/10 06:13:18;;;;;;;31.60;13.40;;;;;;;0.24;100.00;96305.59;10523413;28;20196;-76
2022/01/10 06:18:19;;;;;;;28.93;12.03;;;;;;;0.34;100.00;96319.50;10523446;28;20214;-77
2022/01/10 06:23:19;;;;;;;22.57;11.23;;;;;;;0.40;100.00;96325.16;10523472;28;20190;-77
2022/01/10 06:28:20;;;;;;;26.30;12.73;;;;;;;0.38;100.00;96337.34;10522960;28;20207;-77
2022/01/10 06:33:24;;;;;;;32.57;13.60;;;;;;;0.41;100.00;96352.59;10523139;28;20193;-77
2022/01/10 06:38:26;;;;;;;25.53;13.73;;;;;;;0.41;100.00;96358.56;10523172;28;20320;-77
2022/01/10 06:43:26;;;;;;;38.03;15.63;;;;;;;0.49;100.00;96369.19;10522616;28;20724;-77
2022/01/10 06:48:27;;;;;;;37.73;15.80;;;;;;;0.54;100.00;96374.03;10540619;28;20553;-77
2022/01/10 06:53:28;;;;;;;50.73;15.97;;;;;;;0.56;100.00;96390.22;10522049;28;20717;-77
2022/01/10 06:58:31;;;;;;;35.13;15.03;;;;;;;0.41;100.00;96401.53;10522639;28;20230;-77
2022/01/10 07:03:33;;;;;;;29.27;14.07;;;;;;;0.40;100.00;96411.03;10521906;28;20187;-77
2022/01/10 07:08:44;;;;;;;30.60;14.60;;;;;;;0.26;100.00;96429.13;10522370;28;20189;-77
2022/01/10 07:13:47;;;;;;;30.60;14.33;;;;;;;0.22;100.00;96433.66;10520418;28;20190;-77
2022/01/10 07:18:48;;;;;;;30.13;14.17;;;;;;;0.41;100.00;96445.34;10521682;28;20574;-77
2022/01/10 07:23:58;;;;;;;28.80;14.50;;;;;;;0.35;100.00;96454.28;10520505;28;20534;-77
2022/01/10 07:28:59;;;;;;;27.13;14.17;;;;;;;0.32;100.00;96464.81;10539036;28;20186;-77
2022/01/10 07:33:59;;;;;;;31.13;13.33;;;;;;;0.44;100.00;96473.50;10538787;28;20198;-77
2022/01/10 07:39:00;;;;;;;33.60;15.10;;;;;;;0.33;100.00;96477.59;10536792;28;20225;-77
2022/01/10 07:44:00;;;;;;;41.67;14.60;;;;;;;0.43;100.00;96495.88;10537758;28;20248;-77
2022/01/10 07:49:01;;;;;;;33.37;14.67;;;;;;;0.35;100.00;96506.69;10534885;28;20182;-77
2022/01/10 07:54:01;;;;;;;39.97;16.63;;;;;;;0.34;100.00;96515.31;10535517;28;20190;-77
2022/01/10 07:59:02;;;;;;;36.10;16.97;;;;;;;0.36;100.00;96525.53;10537748;28;20734;-77
2022/01/10 08:04:03;;;;;;;32.00;16.43;;;;;;;0.49;100.00;96522.97;10516904;28;20197;-77
2022/01/10 08:09:03;;;;;;;33.40;15.37;;;;;;;0.43;100.00;96537.09;10534193;28;20185;-77
2022/01/10 08:14:05;;;;;;;38.87;17.67;;;;;;;0.46;100.00;96546.38;10525024;28;20222;-77
2022/01/10 08:19:06;;;;;;;47.87;18.63;;;;;;;0.37;100.00;96554.69;10535108;28;20380;-77
2022/01/10 08:24:06;;;;;;;53.23;19.97;;;;;;;0.21;100.00;96558.22;10516355;28;20183;-78
2022/01/10 08:29:07;;;;;;;51.33;18.97;;;;;;;0.33;100.00;96561.78;10507840;28;20506;-78
2022/01/10 08:34:07;;;;;;;49.03;17.53;;;;;;;0.41;100.00;96563.88;10494624;28;20188;-78
2022/01/10 08:39:08;;;;;;;49.47;18.30;;;;;;;0.49;100.00;96579.69;10465039;28;20535;-78
2022/01/10 08:44:09;;;;;;;50.53;17.87;;;;;;;0.54;100.00;96582.81;10469011;28;20199;-77
2022/01/10 08:49:09;;;;;;;47.10;18.70;;;;;;;0.72;100.00;96591.13;10492542;28;20748;-78
2022/01/10 08:54:10;;;;;;;39.57;18.30;;;;;;;0.77;100.00;96601.13;10492228;28;20267;-77
2022/01/10 08:59:10;;;;;;;45.47;18.63;;;;;;;0.82;100.00;96606.81;10491599;28;20226;-77
2022/01/10 09:04:16;;;;;;;49.03;18.37;;;;;;;0.76;100.00;96620.09;10479154;28;20195;-78
2022/01/10 09:09:16;;;;;;;45.33;16.83;;;;;;;0.82;100.00;96625.69;10488866;28;20190;-78
2022/01/10 09:14:17;;;;;;;49.40;18.37;;;;;;;0.79;100.00;96631.03;10491414;28;20195;-79
2022/01/10 09:19:18;;;;;;;37.77;16.87;;;;;;;0.87;100.00;96633.97;10472107;28;20214;-79
2022/01/10 09:24:18;;;;;;;53.83;19.83;;;;;;;0.79;100.00;96645.69;10490032;28;20183;-78
2022/01/10 09:29:19;;;;;;;51.87;18.83;;;;;;;0.85;100.00;96650.47;10468692;23;20241;-62
2022/01/10 09:34:19;;;;;;;40.83;17.30;;;;;;;0.88;100.00;96653.66;10517120;22;20660;-62
2022/01/10 09:39:19;;;;;;;41.83;17.00;;;;;;;0.81;100.00;96675.63;10490959;28;20276;-62
2022/01/10 09:44:20;;;;;;;48.33;19.43;;;;;;;0.85;100.00;96671.91;10491593;28;20294;-62
2022/01/10 09:49:20;;;;;;;39.37;15.40;;;;;;;0.82;100.00;96674.69;10472330;28;20200;-62
2022/01/10 09:54:21;;;;;;;36.70;17.10;;;;;;;0.83;100.00;96683.25;10458208;28;20254;-62
2022/01/10 09:59:21;;;;;;;39.03;17.23;;;;;;;0.66;100.00;96681.75;10457724;28;20238;-62
2022/01/10 10:04:21;;;;;;;36.37;16.20;;;;;;;0.86;100.00;96694.19;10457661;28;20239;-62
2022/01/10 10:09:22;;;;;;;33.63;16.07;;;;;;;0.78;100.00;96698.19;10457599;28;20246;-62
2022/01/10 10:14:22;;;;;;;33.03;15.17;;;;;;;0.89;100.00;96711.25;10457929;28;20295;-62
2022/01/10 10:19:28;;;;;;;32.83;15.53;;;;;;;0.84;100.00;96719.28;10456728;28;20705;-63
2022/01/10 10:24:28;;;;;;;45.37;15.40;;;;;;;0.95;100.00;96730.63;10457018;28;20215;-63
2022/01/10 10:29:29;;;;;;;42.33;14.90;;;;;;;0.79;100.00;96735.94;10456885;28;20191;-64
2022/01/10 10:34:31;;;;;;;27.53;13.40;;;;;;;0.84;100.00;96733.88;10483515;28;20280;-64
2022/01/10 10:39:35;;;;;;;25.27;11.23;;;;;;;0.75;100.00;96755.94;10497093;28;20272;-64
2022/01/10 10:44:36;;;;;;;26.97;12.93;;;;;;;0.63;100.00;96754.94;10496588;28;20548;-64
2022/01/10 10:49:40;;;;;;;39.83;14.77;;;;;;;0.74;100.00;96758.63;10497187;28;20187;-64
2022/01/10 10:54:40;;;;;;;31.63;15.40;;;;;;;0.74;100.00;96774.09;10497028;28;20279;-64
2022/01/10 10:59:43;;;;;;;41.20;16.47;;;;;;;0.74;100.00;96790.38;10497776;28;20215;-64
2022/01/10 11:04:44;;;;;;;46.23;16.97;;;;;;;0.65;100.00;96784.00;10496244;28;20214;-63
2022/01/10 11:09:46;;;;;;;37.30;15.37;;;;;;;0.69;100.00;96795.81;10496338;28;20203;-64
2022/01/10 11:14:47;;;;;;;45.00;15.40;;;;;;;0.73;100.00;96808.50;10478086;28;20207;-63
2022/01/10 11:20:05;;;;;;;45.77;19.23;;;;;;;0.76;100.00;96816.06;10495731;28;20226;-63
2022/01/10 11:25:19;;;;;;;39.23;17.40;;;;;;;0.92;100.00;96821.09;10494532;28;20207;-63
2022/01/10 11:30:33;;;;;;;43.33;17.80;;;;;;;0.86;100.00;96828.31;10495665;28;20273;-63
2022/01/10 11:35:36;;;;;;;44.33;17.97;;;;;;;0.85;100.00;96836.94;10495018;28;20239;-62
2022/01/10 11:40:37;;;;;;;40.90;18.47;;;;;;;0.86;100.00;96838.63;10494955;28;20787;-62
2022/01/10 11:45:41;;;;;;;45.93;19.70;;;;;;;0.91;100.00;96856.38;10497068;28;20312;-62
2022/01/10 11:50:44;;;;;;;42.60;18.73;;;;;;;1.00;100.00;96852.44;10461585;28;20669;-59
2022/01/10 11:55:52;;;;;;;43.23;17.80;;;;;;;1.01;100.00;96857.50;10500018;28;20206;-60
2022/01/10 12:01:05;;;;;;;46.33;18.90;;;;;;;1.05;100.00;96864.09;10536899;28;20719;-62
2022/01/10 12:06:05;;;;;;;42.17;17.63;;;;;;;1.15;100.00;96866.97;10538176;28;20190;-60
2022/01/10 12:11:07;;;;;;;49.63;18.93;;;;;;;1.05;100.00;96874.44;10536313;28;20194;-61
2022/01/10 12:16:10;;;;;;;45.13;18.97;;;;;;;1.25;100.00;96880.94;10536294;28;20193;-61
2022/01/10 12:21:10;;;;;;;38.43;16.97;;;;;;;1.20;100.00;96888.16;10535323;28;20301;-62
2022/01/10 12:26:11;;;;;;;34.13;14.57;;;;;;;1.28;100.00;96897.19;10517358;28;20289;-61
2022/01/10 12:31:11;;;;;;;40.80;16.30;;;;;;;1.33;100.00;96900.28;10533432;28;20716;-61
2022/01/10 12:36:12;;;;;;;29.03;13.73;;;;;;;1.46;100.00;96913.28;10535027;28;20612;-59
2022/01/10 12:41:12;;;;;;;40.13;15.47;;;;;;;1.41;100.00;96914.41;10507012;28;20223;-61
2022/01/10 12:46:14;;;;;;;33.10;14.77;;;;;;;1.27;100.00;96916.97;10492857;28;20233;-60
2022/01/10 12:51:15;;;;;;;34.73;13.80;;;;;;;1.39;100.00;96936.06;10474601;28;20218;-60
2022/01/10 12:56:16;;;;;;;27.87;13.17;;;;;;;1.36;100.00;96947.41;10492364;28;20193;-61
2022/01/10 13:01:18;;;;;;;28.17;12.17;;;;;;;1.46;100.00;96958.00;10509118;28;20308;-61
2022/01/10 13:06:19;;;;;;;35.20;10.53;;;;;;;1.35;100.00;96966.41;10533760;28;20664;-62
2022/01/10 13:11:23;;;;;;;23.87;10.03;;;;;;;1.35;100.00;96975.91;10534365;28;20203;-61
2022/01/10 13:16:25;;;;;;;25.30;9.87;;;;;;;1.46;100.00;96976.06;10533919;28;20281;-62
2022/01/10 13:21:43;;;;;;;25.73;10.40;;;;;;;1.39;100.00;96991.09;10533401;28;20230;-61
2022/01/10 13:27:18;;;;;;;26.57;11.03;;;;;;;1.41;100.00;96997.00;10541435;28;20186;-62
2022/01/10 13:32:28;;;;;;;25.40;10.40;;;;;;;1.59;100.00;97020.03;10540680;28;20289;-62
2022/01/10 13:37:37;;;;;;;23.60;10.27;;;;;;;1.58;100.00;97018.38;10541544;28;20763;-59
2022/01/10 13:42:41;;;;;;;24.50;10.20;;;;;;;1.51;100.00;97028.25;10540932;28;20229;-62
2022/01/10 13:47:51;;;;;;;27.03;9.87;;;;;;;1.41;100.00;97033.13;10501655;28;20576;-62
2022/01/10 13:53:07;;;;;;;32.23;11.80;;;;;;;1.30;100.00;97039.84;10498828;28;20708;-61
2022/01/10 13:58:22;;;;;;;22.73;8.80;;;;;;;1.33;100.00;97052.56;10498502;28;20308;-62
2022/01/10 14:03:25;;;;;;;28.70;10.70;;;;;;;1.34;100.00;97056.81;10498715;28;20292;-62
2022/01/10 14:08:26;;;;;;;35.13;12.50;;;;;;;1.29;100.00;97064.84;10525270;28;20190;-62
2022/01/10 14:13:26;;;;;;;26.83;10.40;;;;;;;1.32;100.00;97071.56;10539837;28;20202;-62
2022/01/10 14:18:26;;;;;;;34.10;10.60;;;;;;;1.42;100.00;97076.09;10540350;28;20223;-59
2022/01/10 14:23:28;;;;;;;22.67;10.67;;;;;;;1.42;100.00;97081.28;10531301;28;20294;-62
2022/01/10 14:28:28;;;;;;;24.67;10.27;;;;;;;1.47;100.00;97091.31;10515253;28;20184;-61
2022/01/10 14:33:29;;;;;;;25.50;10.33;;;;;;;1.42;100.00;97096.75;10515971;28;20226;-61
2022/01/10 14:38:29;;;;;;;29.80;10.43;;;;;;;1.53;100.00;97103.03;10516187;28;20215;-61
2022/01/10 14:43:30;;;;;;;24.83;10.40;;;;;;;1.53;100.00;97114.19;10516835;28;20692;-62
2022/01/10 14:48:31;;;;;;;27.37;12.50;;;;;;;1.43;100.00;97118.22;10514139;28;20199;-62
2022/01/10 14:53:31;;;;;;;30.00;14.63;;;;;;;1.34;100.00;97126.50;10510061;28;20210;-62
2022/01/10 14:58:32;;;;;;;28.53;14.43;;;;;;;1.37;100.00;97134.06;10495410;28;20560;-62
2022/01/10 15:03:32;;;;;;;35.93;15.23;;;;;;;1.38;100.00;97149.47;10496654;28;20642;-61
2022/01/10 15:08:32;;;;;;;38.23;15.10;;;;;;;1.48;100.00;97157.50;10504275;28;20187;-62
2022/01/10 15:13:33;;;;;;;32.90;13.70;;;;;;;1.33;100.00;97161.81;10538058;28;20214;-64
2022/01/10 15:18:33;;;;;;;26.67;12.50;;;;;;;1.31;100.00;97176.56;10538015;28;20748;-62
2022/01/10 15:23:35;;;;;;;115.87;45.87;;;;;;;1.29;100.00;97177.53;10537485;28;20203;-63
2022/01/10 15:28:36;;;;;;;36.73;17.63;;;;;;;1.28;100.00;97183.66;10537247;28;20195;-62
2022/01/10 15:33:36;;;;;;;37.47;18.17;;;;;;;1.28;100.00;97194.78;10536564;28;20250;-61
2022/01/10 15:38:38;;;;;;;38.33;16.50;;;;;;;1.22;100.00;97208.03;10477054;22;20244;-60
2022/01/10 15:43:39;;;;;;;47.57;23.43;;;;;;;1.21;100.00;97216.69;10409771;28;20185;-59
2022/01/10 15:48:39;;;;;;;36.67;15.57;;;;;;;1.27;100.00;97226.66;10437865;28;20211;-59
2022/01/10 15:53:40;;;;;;;36.77;15.80;;;;;;;1.22;100.00;97236.44;10452544;28;20235;-62
2022/01/10 15:58:40;;;;;;;43.13;16.07;;;;;;;1.19;100.00;97242.59;10452458;28;20713;-59
2022/01/10 16:03:41;;;;;;;40.73;18.53;;;;;;;1.27;100.00;97262.81;10452501;28;20199;-61
2022/01/10 16:08:41;;;;;;;53.77;32.63;;;;;;;1.22;100.00;97260.47;10452535;28;20223;-61
2022/01/10 16:13:43;;;;;;;40.80;21.97;;;;;;;1.34;100.00;97273.63;10451128;28;20191;-60
2022/01/10 16:18:43;;;;;;;44.10;21.60;;;;;;;1.22;100.00;97288.03;10451568;28;20227;-60
2022/01/10 16:23:44;;;;;;;31.87;14.47;;;;;;;1.02;100.00;97299.44;10449917;28;20541;-61
2022/01/10 16:28:44;;;;;;;27.40;11.90;;;;;;;0.97;100.00;97298.88;10448651;28;20211;-61
2022/01/10 16:33:45;;;;;;;21.70;10.30;;;;;;;0.98;100.00;97311.69;10448513;28;20281;-61
2022/01/10 16:38:45;;;;;;;24.43;10.40;;;;;;;1.01;100.00;97324.44;10448145;28;20242;-60
2022/01/10 16:43:45;;;;;;;25.90;11.23;;;;;;;0.93;100.00;97328.31;10444188;28;20230;-60
2022/01/10 16:48:47;;;;;;;35.90;13.20;;;;;;;0.93;100.00;97331.72;10419760;28;20207;-62
2022/01/10 16:53:47;;;;;;;29.43;13.40;;;;;;;0.93;100.00;97336.06;10412364;28;20728;-62
2022/01/10 16:58:47;;;;;;;25.53;13.27;;;;;;;0.87;100.00;97337.19;10449289;28;20735;-62
2022/01/10 17:03:48;;;;;;;30.13;14.03;;;;;;;0.90;100.00;97352.53;10451961;28;20195;-61
2022/01/10 17:08:48;;;;;;;26.70;13.33;;;;;;;0.94;100.00;97359.19;10451935;28;20250;-61
2022/01/10 17:13:49;;;;;;;33.50;14.83;;;;;;;0.87;100.00;97366.44;10452118;28;20199;-60
2022/01/10 17:18:49;;;;;;;32.07;14.97;;;;;;;0.94;100.00;97374.66;10450995;28;20231;-60
2022/01/10 17:23:49;;;;;;;29.00;15.00;;;;;;;0.87;100.00;97381.06;10451224;28;20282;-62
2022/01/10 17:28:50;;;;;;;41.23;15.93;;;;;;;0.94;100.00;97394.47;10450683;28;20315;-60
2022/01/10 17:33:50;;;;;;;35.63;16.17;;;;;;;0.89;100.00;97400.72;10451555;28;20206;-62
2022/01/10 17:38:50;;;;;;;36.40;17.90;;;;;;;0.89;100.00;97408.44;10451199;28;20330;-62
2022/01/10 17:43:51;;;;;;;44.10;17.57;;;;;;;0.94;100.00;97421.09;10451072;28;20214;-60
2022/01/10 17:48:51;;;;;;;31.00;15.50;;;;;;;0.83;100.00;97426.00;10451324;28;20349;-61
2022/01/10 17:53:51;;;;;;;30.43;15.63;;;;;;;0.83;100.00;97431.97;10450778;28;20192;-60
2022/01/10 17:58:52;;;;;;;27.17;13.53;;;;;;;0.89;100.00;97441.97;10450984;28;20230;-62
2022/01/10 18:03:52;;;;;;;22.47;11.93;;;;;;;0.77;100.00;97450.34;10450877;28;20187;-59
2022/01/10 18:08:53;;;;;;;22.77;12.30;;;;;;;0.78;100.00;97457.16;10451985;28;20385;-61
2022/01/10 18:13:53;;;;;;;23.30;11.23;;;;;;;0.79;100.00;97460.56;10457987;28;20247;-61
2022/01/10 18:18:54;;;;;;;25.43;13.53;;;;;;;0.86;100.00;97467.09;10451375;28;20207;-61
2022/01/10 18:23:54;;;;;;;28.10;14.10;;;;;;;0.76;100.00;97465.88;10445711;28;20203;-62
2022/01/10 18:28:54;;;;;;;24.70;14.83;;;;;;;0.80;100.00;97470.81;10457083;28;20265;-61
2022/01/10 18:33:56;;;;;;;47.93;28.10;;;;;;;0.76;100.00;97478.78;10457310;28;20204;-57
2022/01/10 18:38:56;;;;;;;37.53;19.10;;;;;;;0.73;100.00;97487.50;10456719;28;20276;-59
2022/01/10 18:44:00;;;;;;;31.67;15.50;;;;;;;0.75;100.00;97493.44;10456332;28;20294;-57
2022/01/10 18:49:00;;;;;;;23.50;14.37;;;;;;;0.76;100.00;97502.81;10456155;28;20326;-57
2022/01/10 18:54:01;;;;;;;25.27;13.47;;;;;;;0.75;100.00;97502.88;10456091;28;20274;-59
2022/01/10 18:59:06;;;;;;;23.63;12.50;;;;;;;0.68;100.00;97517.84;10455915;28;20633;-58
2022/01/10 19:04:07;;;;;;;24.80;15.67;;;;;;;0.71;100.00;97521.09;10455813;28;20196;-61
2022/01/10 19:09:09;;;;;;;24.03;13.40;;;;;;;0.64;100.00;97537.75;10455293;28;20614;-61
2022/01/10 19:14:10;;;;;;;27.13;12.30;;;;;;;0.64;100.00;97540.34;10455392;28;20191;-59
2022/01/10 19:19:11;;;;;;;25.67;14.00;;;;;;;0.62;100.00;97549.91;10454922;28;20317;-62
2022/01/10 19:24:12;;;;;;;29.30;15.33;;;;;;;0.68;100.00;97551.38;10433962;28;20209;-60
2022/01/10 19:29:12;;;;;;;29.07;15.87;;;;;;;0.61;100.00;97555.97;10434252;28;20514;-59
2022/01/10 19:34:13;;;;;;;31.83;15.33;;;;;;;0.59;100.00;97562.94;10429922;28;21944;-60
2022/01/10 19:39:14;;;;;;;22.43;13.93;;;;;;;0.67;100.00;97585.78;10435617;28;20596;-56
2022/01/10 19:44:14;;;;;;;27.33;14.60;;;;;;;0.57;100.00;97580.25;10429611;28;20188;-59
2022/01/10 19:49:15;;;;;;;29.17;14.23;;;;;;;0.57;100.00;97590.56;10424552;28;20208;-57
2022/01/10 19:54:17;;;;;;;28.77;14.83;;;;;;;0.56;100.00;97594.03;10412417;28;20249;-61
2022/01/10 19:59:17;;;;;;;26.30;17.03;;;;;;;0.50;100.00;97592.56;10412091;28;20694;-59
2022/01/10 20:04:17;;;;;;;30.87;17.10;;;;;;;0.52;100.00;97606.25;10412053;28;20192;-58
2022/01/10 20:09:18;;;;;;;38.83;18.97;;;;;;;0.61;100.00;97604.13;10411882;28;20215;-61
2022/01/10 20:14:18;;;;;;;29.27;16.47;;;;;;;0.62;100.00;97600.66;10411821;28;20216;-60
2022/01/10 20:19:18;;;;;;;25.83;16.17;;;;;;;0.59;100.00;97603.38;10411492;28;20773;-58
2022/01/10 20:24:19;;;;;;;28.43;17.10;;;;;;;0.56;100.00;97613.84;10411326;28;20965;-61
2022/01/10 20:29:20;;;;;;;30.60;15.73;;;;;;;0.59;100.00;97622.25;10410841;28;20567;-60
2022/01/10 20:34:20;;;;;;;31.83;17.53;;;;;;;0.58;100.00;97630.06;10410881;28;20278;-61
2022/01/10 20:39:21;;;;;;;36.27;18.10;;;;;;;0.55;100.00;97625.03;10421491;28;20705;-59
2022/01/10 20:44:21;;;;;;;37.37;19.70;;;;;;;0.50;100.00;97633.81;10451832;28;20280;-61
2022/01/10 20:49:22;;;;;;;34.47;19.10;;;;;;;0.48;100.00;97638.22;10451899;28;20297;-61
2022/01/10 20:54:22;;;;;;;34.53;19.23;;;;;;;0.45;100.00;97640.13;10429581;28;20291;-60
2022/01/10 20:59:22;;;;;;;34.13;18.33;;;;;;;0.47;100.00;97644.28;10410376;28;20231;-59
2022/01/10 21:04:23;;;;;;;34.03;18.60;;;;;;;0.46;100.00;97658.09;10410429;28;20290;-62
2022/01/10 21:09:24;;;;;;;32.30;18.00;;;;;;;0.42;100.00;97666.03;10410358;28;20251;-59
2022/01/10 21:14:25;;;;;;;30.43;17.50;;;;;;;0.41;100.00;97656.63;10410273;28;20204;-58
2022/01/10 21:19:25;;;;;;;30.83;17.50;;;;;;;0.46;100.00;97672.69;10410331;28;20270;-61
2022/01/10 21:24:26;;;;;;;32.70;17.37;;;;;;;0.42;100.00;97681.50;10417017;28;20723;-62
2022/01/10 21:29:26;;;;;;;32.57;18.03;;;;;;;0.44;100.00;97682.25;10424900;28;20209;-61
2022/01/10 21:34:26;;;;;;;37.33;18.87;;;;;;;0.42;100.00;97691.81;10427231;28;20196;-59
2022/01/10 21:39:27;;;;;;;41.90;20.60;;;;;;;0.35;100.00;97699.81;10428119;28;20301;-61
2022/01/10 21:44:28;;;;;;;41.83;20.07;;;;;;;0.29;100.00;97712.97;10429670;28;20281;-63
2022/01/10 21:49:28;;;;;;;44.20;22.80;;;;;;;0.28;100.00;97713.88;10436318;28;20211;-62
2022/01/10 21:54:28;;;;;;;52.90;24.03;;;;;;;0.23;100.00;97723.56;10434718;28;20219;-59
2022/01/10 21:59:29;;;;;;;51.53;23.77;;;;;;;0.18;100.00;97722.91;10456762;22;20331;-64
2022/01/10 22:04:29;;;;;;;58.13;25.90;;;;;;;0.17;100.00;97728.97;10458832;28;20195;-62
2022/01/10 22:09:29;;;;;;;58.90;26.27;;;;;;;0.12;100.00;97736.03;10459043;28;20207;-64
2022/01/10 22:14:30;;;;;;;55.67;26.43;;;;;;;0.09;100.00;97741.34;10458528;28;20187;-61
2022/01/10 22:19:33;;;;;;;64.80;28.63;;;;;;;-0.05;100.00;97750.47;10458519;28;20226;-64
2022/01/10 22:24:33;;;;;;;69.03;28.23;;;;;;;-0.10;100.00;97752.41;10457741;28;20289;-64
2022/01/10 22:29:35;;;;;;;85.73;30.47;;;;;;;-0.18;100.00;97757.06;10457622;28;20297;-60
2022/01/10 22:34:36;;;;;;;85.17;30.33;;;;;;;-0.14;100.00;97760.34;10457519;28;20658;-61
2022/01/10 22:39:37;;;;;;;89.10;31.30;;;;;;;-0.22;100.00;97760.66;10457477;28;20250;-62
2022/01/10 22:44:37;;;;;;;99.13;30.40;;;;;;;-0.28;100.00;97771.22;10457384;28;20326;-63
2022/01/10 22:49:37;;;;;;;80.70;29.07;;;;;;;-0.22;100.00;97769.22;10456893;28;20200;-62
2022/01/10 22:54:38;;;;;;;102.63;30.80;;;;;;;-0.34;100.00;97779.19;10456560;28;20192;-63
2022/01/10 22:59:38;;;;;;;112.20;32.03;;;;;;;-0.39;100.00;97782.78;10455630;28;20259;-63
2022/01/10 23:04:39;;;;;;;144.53;33.07;;;;;;;-0.45;100.00;97785.59;10456773;28;20238;-64